Time;durP1;ratioP1;P1;durP2;ratioP2;P2;SDS_P1;SDS_P2;PMS_P1;PMS_P2;Temp;Humidity;BMP_temperature;BMP_pressure;BME280_temperature;BME280_humidity;BME280_pressure;Samples;Min_cycle;Max_cycle;Signal;HPM_P1;HPM_P2
2023/05/19 00:02:14;;;;;;;;;;;;;;;8.54;100.00;96110.84;10480865;28;1726;-71
2023/05/19 00:07:17;;;;;;;;;;;;;;;8.48;100.00;96110.00;10478202;28;2034;-71
2023/05/19 00:12:19;;;;;;;;;;;;;;;8.49;100.00;96103.56;10480062;28;1993;-71
2023/05/19 00:17:22;;;;;;;;;;;;;;;8.48;100.00;96099.28;10481865;28;1827;-71
2023/05/19 00:22:24;;;;;;;;;;;;;;;8.34;100.00;96092.66;10477995;28;1878;-71
2023/05/19 00:27:27;;;;;;;;;;;;;;;8.32;100.00;96089.41;10476333;28;1984;-71
2023/05/19 00:32:30;;;;;;;;;;;;;;;8.30;100.00;96083.50;10470558;28;1983;-71
2023/05/19 00:37:32;;;;;;;;;;;;;;;8.30;100.00;96091.53;10472049;28;2000;-71
2023/05/19 00:42:35;;;;;;;;;;;;;;;8.25;100.00;96084.25;10485271;28;4525;-71
2023/05/19 00:47:38;;;;;;;;;;;;;;;8.25;100.00;96078.88;10482846;28;1931;-70
2023/05/19 00:52:40;;;;;;;;;;;;;;;8.28;100.00;96069.56;10476884;28;1906;-69
2023/05/19 00:57:43;;;;;;;;;;;;;;;8.26;100.00;96074.34;10476318;28;1901;-68
2023/05/19 01:02:46;;;;;;;;;;;;;;;8.22;100.00;96066.00;10477626;28;1971;-71
2023/05/19 01:07:52;;;;;;;;;;;;;;;8.20;100.00;96064.63;10480487;28;1943;-71
2023/05/19 01:12:54;;;;;;;;;;;;;;;8.15;100.00;96061.91;10474031;28;2237;-69
2023/05/19 01:17:57;;;;;;;;;;;;;;;8.02;100.00;96069.28;10472745;28;1959;-71
2023/05/19 01:22:59;;;;;;;;;;;;;;;7.92;100.00;96069.13;10486092;28;2220;-70
2023/05/19 01:28:02;;;;;;;;;;;;;;;7.90;100.00;96076.63;10473150;28;2269;-71
2023/05/19 01:33:22;;;;;;;;;;;;;;;7.79;100.00;96077.53;10471528;28;1943;-69
2023/05/19 01:38:25;;;;;;;;;;;;;;;7.82;100.00;96069.00;10502284;28;2187;-69
2023/05/19 01:43:27;;;;;;;;;;;;;;;7.73;100.00;96082.03;10476189;28;4545;-70
2023/05/19 01:48:29;;;;;;;;;;;;;;;7.68;100.00;96079.28;10477181;28;1976;-70
2023/05/19 01:53:32;;;;;;;;;;;;;;;7.82;100.00;96085.06;10478602;28;1921;-71
2023/05/19 01:58:34;;;;;;;;;;;;;;;7.59;100.00;96086.91;10475225;28;1955;-71
2023/05/19 02:03:37;;;;;;;;;;;;;;;7.67;100.00;96074.97;10478697;28;1975;-70
2023/05/19 02:08:39;;;;;;;;;;;;;;;7.69;100.00;96069.38;10478179;28;1919;-77
2023/05/19 02:13:41;;;;;;;;;;;;;;;7.82;100.00;96075.19;10477172;28;1931;-71
2023/05/19 02:18:45;;;;;;;;;;;;;;;7.64;100.00;96070.13;10478131;28;2040;-71
2023/05/19 02:23:47;;;;;;;;;;;;;;;7.61;100.00;96067.94;10482609;28;1979;-70
2023/05/19 02:28:49;;;;;;;;;;;;;;;7.61;100.00;96067.13;10477526;28;1910;-70
2023/05/19 02:33:52;;;;;;;;;;;;;;;7.57;100.00;96064.97;10476303;28;2140;-72
2023/05/19 02:38:54;;;;;;;;;;;;;;;7.53;100.00;96055.81;10473083;28;1876;-71
2023/05/19 02:43:57;;;;;;;;;;;;;;;7.57;100.00;96064.13;10472387;28;4583;-71
2023/05/19 02:48:59;;;;;;;;;;;;;;;7.57;100.00;96059.63;10472548;28;1967;-69
2023/05/19 02:54:01;;;;;;;;;;;;;;;7.49;100.00;96057.34;10473291;28;2022;-71
2023/05/19 02:59:04;;;;;;;;;;;;;;;7.51;100.00;96051.78;10473450;28;1959;-71
2023/05/19 03:04:07;;;;;;;;;;;;;;;7.55;100.00;96048.34;10483285;28;1943;-69
2023/05/19 03:09:10;;;;;;;;;;;;;;;7.54;100.00;96057.41;10486150;28;1976;-70
2023/05/19 03:14:12;;;;;;;;;;;;;;;7.51;100.00;96051.78;10471573;28;2028;-70
2023/05/19 03:19:15;;;;;;;;;;;;;;;7.49;100.00;96054.66;10474877;28;1955;-71
2023/05/19 03:24:17;;;;;;;;;;;;;;;7.39;100.00;96053.75;10475517;28;2051;-71
2023/05/19 03:29:20;;;;;;;;;;;;;;;7.60;100.00;96044.91;10474232;28;2161;-70
2023/05/19 03:34:22;;;;;;;;;;;;;;;7.42;100.00;96048.69;10480020;28;1987;-70
2023/05/19 03:39:25;;;;;;;;;;;;;;;7.51;100.00;96049.91;10484703;28;4580;-70
2023/05/19 03:44:27;;;;;;;;;;;;;;;7.45;100.00;96039.38;10480485;28;1940;-71
2023/05/19 03:49:30;;;;;;;;;;;;;;;7.57;100.00;96037.38;10475915;28;2045;-71
2023/05/19 03:54:32;;;;;;;;;;;;;;;7.59;100.00;96038.75;10475726;28;2106;-71
2023/05/19 03:59:36;;;;;;;;;;;;;;;7.64;100.00;96042.56;10471035;28;1956;-70
2023/05/19 04:04:38;;;;;;;;;;;;;;;7.76;100.00;96040.56;10478380;28;2004;-71
2023/05/19 04:09:41;;;;;;;;;;;;;;;7.79;100.00;96037.41;10464617;28;2023;-71
2023/05/19 04:14:43;;;;;;;;;;;;;;;7.81;100.00;96035.28;10475287;28;1944;-71
2023/05/19 04:19:46;;;;;;;;;;;;;;;7.92;100.00;96031.66;10473962;28;2032;-74
2023/05/19 04:24:50;;;;;;;;;;;;;;;7.90;100.00;96031.13;10476001;28;2029;-71
2023/05/19 04:29:53;;;;;;;;;;;;;;;7.91;100.00;96035.41;10475079;28;1913;-70
2023/05/19 04:34:57;;;;;;;;;;;;;;;7.93;100.00;96033.28;10483296;28;2089;-70
2023/05/19 04:40:00;;;;;;;;;;;;;;;8.06;100.00;96032.91;10482938;28;4445;-71
2023/05/19 04:45:04;;;;;;;;;;;;;;;8.14;100.00;96034.31;10478989;28;2229;-71
2023/05/19 04:50:06;;;;;;;;;;;;;;;8.05;100.00;96031.28;10477020;28;2003;-70
2023/05/19 04:55:10;;;;;;;;;;;;;;;8.25;100.00;96028.00;10477011;28;1972;-71
2023/05/19 05:00:13;;;;;;;;;;;;;;;8.30;100.00;96024.56;10475762;28;2030;-70
2023/05/19 05:05:16;;;;;;;;;;;;;;;8.49;100.00;96027.75;10482236;28;1834;-70
2023/05/19 05:10:18;;;;;;;;;;;;;;;8.49;100.00;96008.97;10481393;28;1910;-71
2023/05/19 05:15:21;;;;;;;;;;;;;;;8.72;100.00;96014.03;10475662;28;1840;-70
2023/05/19 05:20:23;;;;;;;;;;;;;;;9.17;100.00;96010.84;10476426;28;1893;-70
2023/05/19 05:25:25;;;;;;;;;;;;;;;9.31;100.00;95999.66;10475077;28;2048;-70
2023/05/19 05:30:28;;;;;;;;;;;;;;;9.62;100.00;95998.75;10471055;28;1906;-71
2023/05/19 05:35:31;;;;;;;;;;;;;;;9.72;100.00;95990.72;10479358;28;1897;-72
2023/05/19 05:40:34;;;;;;;;;;;;;;;9.56;100.00;96007.84;10480216;28;4460;-71
2023/05/19 05:45:37;;;;;;;;;;;;;;;10.16;100.00;96009.13;10473368;28;1842;-73
2023/05/19 05:50:40;;;;;;;;;;;;;;;10.22;100.00;96001.91;10474875;28;2205;-72
2023/05/19 05:55:42;;;;;;;;;;;;;;;11.08;100.00;96002.00;10476841;28;1900;-75
2023/05/19 06:00:47;;;;;;;;;;;;;;;11.38;100.00;95989.53;10500046;28;1877;-71
2023/05/19 06:05:50;;;;;;;;;;;;;;;11.56;100.00;95999.72;10474556;28;1901;-72
2023/05/19 06:10:52;;;;;;;;;;;;;;;10.96;100.00;95997.97;10466675;28;1979;-69
2023/05/19 06:15:55;;;;;;;;;;;;;;;10.36;100.00;96002.22;10469143;28;1896;-70
2023/05/19 06:20:57;;;;;;;;;;;;;;;11.00;100.00;95997.13;10477498;28;1986;-70
2023/05/19 06:26:00;;;;;;;;;;;;;;;10.77;100.00;95998.50;10471803;28;2035;-71
2023/05/19 06:31:02;;;;;;;;;;;;;;;11.29;100.00;95997.38;10475149;28;1977;-72
2023/05/19 06:36:05;;;;;;;;;;;;;;;11.83;100.00;95993.19;10483028;28;1972;-72
2023/05/19 06:41:07;;;;;;;;;;;;;;;11.77;100.00;95984.31;10474652;28;4567;-71
2023/05/19 06:46:11;;;;;;;;;;;;;;;12.47;100.00;95988.81;10468531;28;1829;-66
2023/05/19 06:51:15;;;;;;;;;;;;;;;12.95;100.00;95979.81;10468355;28;1938;-68
2023/05/19 06:56:18;;;;;;;;;;;;;;;12.30;100.00;95981.91;10469608;28;2010;-68
2023/05/19 07:01:20;;;;;;;;;;;;;;;12.44;100.00;95991.00;10466001;28;1885;-70
2023/05/19 07:06:23;;;;;;;;;;;;;;;12.20;100.00;95994.63;10465691;28;1996;-68
2023/05/19 07:11:25;;;;;;;;;;;;;;;12.85;100.00;95995.25;10469982;28;1898;-68
2023/05/19 07:16:27;;;;;;;;;;;;;;;12.69;100.00;95990.00;10465328;28;2127;-71
2023/05/19 07:21:30;;;;;;;;;;;;;;;12.36;100.00;95983.50;10468866;28;1822;-70
2023/05/19 07:26:32;;;;;;;;;;;;;;;11.98;100.00;95993.16;10468810;28;1844;-69
2023/05/19 07:31:35;;;;;;;;;;;;;;;13.12;100.00;95990.19;10468885;28;1973;-68
2023/05/19 07:36:37;;;;;;;;;;;;;;;12.35;100.00;95981.88;10472245;28;1901;-69
2023/05/19 07:41:40;;;;;;;;;;;;;;;11.90;100.00;95991.84;10474433;28;4426;-71
2023/05/19 07:46:42;;;;;;;;;;;;;;;12.44;100.00;95982.91;10472210;28;1822;-70
2023/05/19 07:51:45;;;;;;;;;;;;;;;12.45;100.00;95987.19;10470653;28;1994;-71
2023/05/19 07:56:47;;;;;;;;;;;;;;;13.08;100.00;95991.03;10475517;28;1841;-70
2023/05/19 08:01:50;;;;;;;;;;;;;;;13.19;100.00;95984.47;10466128;28;1845;-69
2023/05/19 08:06:53;;;;;;;;;;;;;;;12.65;100.00;95990.84;10472746;28;1861;-69
2023/05/19 08:11:56;;;;;;;;;;;;;;;13.01;100.00;95977.06;10469179;28;2003;-69
2023/05/19 08:16:59;;;;;;;;;;;;;;;12.59;100.00;95986.56;10468510;28;1928;-68
2023/05/19 08:22:02;;;;;;;;;;;;;;;12.19;100.00;95985.75;10467218;28;1929;-70
2023/05/19 08:27:05;;;;;;;;;;;;;;;12.10;100.00;95992.81;10464896;28;1826;-71
2023/05/19 08:32:08;;;;;;;;;;;;;;;11.95;100.00;95982.09;10468103;28;1969;-71
2023/05/19 08:37:14;;;;;;;;;;;;;;;12.29;100.00;95972.22;10475866;28;1991;-70
2023/05/19 08:42:16;;;;;;;;;;;;;;;12.27;100.00;95976.28;10470404;28;4509;-71
2023/05/19 08:47:19;;;;;;;;;;;;;;;12.52;100.00;95980.69;10469628;28;1874;-71
2023/05/19 08:52:22;;;;;;;;;;;;;;;12.59;100.00;95973.09;10472363;28;2013;-70
2023/05/19 08:57:24;;;;;;;;;;;;;;;12.26;100.00;95977.34;10468334;28;1883;-70
2023/05/19 09:02:27;;;;;;;;;;;;;;;12.26;100.00;95980.84;10467114;28;1862;-71
2023/05/19 09:07:29;;;;;;;;;;;;;;;12.10;100.00;95980.16;10470694;28;2059;-71
2023/05/19 09:12:32;;;;;;;;;;;;;;;11.97;100.00;95966.50;10471319;28;1965;-72
2023/05/19 09:17:34;;;;;;;;;;;;;;;12.39;100.00;95972.16;10463743;28;1850;-71
2023/05/19 09:22:37;;;;;;;;;;;;;;;12.15;100.00;95976.59;10471853;28;1864;-71
2023/05/19 09:27:39;;;;;;;;;;;;;;;12.77;100.00;95975.09;10464555;28;1951;-72
2023/05/19 09:32:41;;;;;;;;;;;;;;;12.88;100.00;95968.53;10466856;28;1910;-71
2023/05/19 09:37:45;;;;;;;;;;;;;;;13.67;100.00;95957.50;10469960;28;1747;-71
2023/05/19 09:42:47;;;;;;;;;;;;;;;13.43;100.00;95958.31;10469894;28;4425;-70
2023/05/19 09:47:50;;;;;;;;;;;;;;;13.35;100.00;95972.44;10472664;28;1507;-71
2023/05/19 09:52:52;;;;;;;;;;;;;;;12.94;100.00;95959.31;10461538;28;1910;-71
2023/05/19 09:57:55;;;;;;;;;;;;;;;13.57;100.00;95954.94;10468768;28;1897;-71
2023/05/19 10:02:57;;;;;;;;;;;;;;;14.10;100.00;95960.22;10457678;28;2224;-70
2023/05/19 10:08:01;;;;;;;;;;;;;;;14.18;100.00;95956.84;10462595;28;1885;-72
2023/05/19 10:13:03;;;;;;;;;;;;;;;12.92;100.00;95956.09;10464875;28;1910;-73
2023/05/19 10:18:06;;;;;;;;;;;;;;;12.93;100.00;95954.22;10469571;28;1897;-71
2023/05/19 10:23:08;;;;;;;;;;;;;;;13.85;100.00;95959.44;10463611;28;1830;-71
2023/05/19 10:28:11;;;;;;;;;;;;;;;12.89;100.00;95961.25;10464596;28;1881;-71
2023/05/19 10:33:13;;;;;;;;;;;;;;;12.37;100.00;95958.16;10466514;28;1992;-71
2023/05/19 10:38:16;;;;;;;;;;;;;;;13.12;100.00;95948.91;10463690;28;1822;-71
2023/05/19 10:43:18;;;;;;;;;;;;;;;12.93;100.00;95957.72;10461170;28;4449;-73
2023/05/19 10:48:21;;;;;;;;;;;;;;;13.23;100.00;95964.75;10459563;28;1803;-75
2023/05/19 10:53:23;;;;;;;;;;;;;;;13.21;100.00;95955.31;10465338;28;2059;-72
2023/05/19 10:58:25;;;;;;;;;;;;;;;13.74;100.00;95947.97;10463188;28;2219;-71
2023/05/19 11:03:28;;;;;;;;;;;;;;;13.04;100.00;95949.50;10464022;28;1885;-71
2023/05/19 11:08:32;;;;;;;;;;;;;;;12.44;100.00;95953.25;10463314;28;1856;-71
2023/05/19 11:13:34;;;;;;;;;;;;;;;12.56;100.00;95944.81;10465462;28;1989;-71
2023/05/19 11:18:38;;;;;;;;;;;;;;;12.93;100.00;95944.22;10467886;28;1958;-75
2023/05/19 11:23:40;;;;;;;;;;;;;;;13.33;100.00;95946.81;10475851;28;1965;-70
2023/05/19 11:28:43;;;;;;;;;;;;;;;13.86;100.00;95936.72;10470668;28;1901;-71
2023/05/19 11:33:45;;;;;;;;;;;;;;;14.07;100.00;95942.69;10468379;28;1960;-70
2023/05/19 11:38:47;;;;;;;;;;;;;;;13.58;100.00;95926.84;10469718;28;1873;-70
2023/05/19 11:43:50;;;;;;;;;;;;;;;14.70;100.00;95939.63;10478950;28;4545;-70
2023/05/19 11:48:52;;;;;;;;;;;;;;;15.03;100.00;95943.09;10486495;28;1877;-69
2023/05/19 11:53:55;;;;;;;;;;;;;;;14.36;100.00;95945.22;10481473;28;1989;-70
2023/05/19 11:58:57;;;;;;;;;;;;;;;13.55;100.00;95943.59;10481791;28;2087;-73
2023/05/19 12:04:00;;;;;;;;;;;;;;;13.68;100.00;95948.31;10484834;28;1792;-71
2023/05/19 12:09:03;;;;;;;;;;;;;;;13.23;100.00;95948.56;10480061;28;1849;-69
2023/05/19 12:14:05;;;;;;;;;;;;;;;13.11;100.00;95944.59;10477312;28;1906;-69
2023/05/19 12:19:09;;;;;;;;;;;;;;;12.94;100.00;95956.63;10488167;28;1897;-70
2023/05/19 12:24:11;;;;;;;;;;;;;;;12.15;100.00;95952.34;10485390;28;1921;-70
2023/05/19 12:29:14;;;;;;;;;;;;;;;12.57;100.00;95951.81;10473938;28;1960;-70
2023/05/19 12:34:17;;;;;;;;;;;;;;;12.93;100.00;95946.91;10478433;28;2197;-70
2023/05/19 12:39:21;;;;;;;;;;;;;;;12.58;100.00;95939.13;10473659;28;1871;-70
2023/05/19 12:44:24;;;;;;;;;;;;;;;12.36;100.00;95940.38;10476952;28;5002;-69
2023/05/19 12:49:26;;;;;;;;;;;;;;;13.35;100.00;95940.03;10468583;28;1901;-69
2023/05/19 12:54:31;;;;;;;;;;;;;;;13.05;100.00;95941.16;10479289;28;2085;-69
2023/05/19 12:59:33;;;;;;;;;;;;;;;13.20;100.00;95946.41;10473043;28;1891;-69
2023/05/19 13:04:40;;;;;;;;;;;;;;;13.88;100.00;95923.75;10478565;28;1834;-74
2023/05/19 13:09:43;;;;;;;;;;;;;;;14.54;100.00;95932.81;10467307;28;1952;-70
2023/05/19 13:14:46;;;;;;;;;;;;;;;14.87;100.00;95917.41;10472784;28;1971;-70
2023/05/19 13:19:49;;;;;;;;;;;;;;;15.80;100.00;95909.16;10477207;28;1901;-69
2023/05/19 13:24:52;;;;;;;;;;;;;;;14.67;100.00;95909.63;10472255;28;1842;-69
2023/05/19 13:29:54;;;;;;;;;;;;;;;14.59;100.00;95898.38;10465264;28;1886;-68
2023/05/19 13:34:57;;;;;;;;;;;;;;;14.58;100.00;95896.78;10475981;28;1929;-71
2023/05/19 13:40:00;;;;;;;;;;;;;;;14.90;100.00;95887.03;10474795;28;4425;-69
2023/05/19 13:45:03;;;;;;;;;;;;;;;14.43;100.00;95875.34;10483170;28;1837;-72
2023/05/19 13:50:05;;;;;;;;;;;;;;;14.57;100.00;95891.69;10470232;28;2127;-70
2023/05/19 13:55:08;;;;;;;;;;;;;;;14.55;100.00;95870.31;10477749;28;1913;-69
2023/05/19 14:00:11;;;;;;;;;;;;;;;15.25;100.00;95871.22;10477831;28;1771;-69
2023/05/19 14:05:14;;;;;;;;;;;;;;;14.68;100.00;95870.63;10476183;28;1788;-69
2023/05/19 14:10:16;;;;;;;;;;;;;;;14.61;100.00;95860.19;10473808;28;1969;-69
2023/05/19 14:15:19;;;;;;;;;;;;;;;14.95;100.00;95853.66;10465374;28;1993;-69
2023/05/19 14:20:22;;;;;;;;;;;;;;;14.76;100.00;95859.13;10473071;28;2173;-70
2023/05/19 14:25:25;;;;;;;;;;;;;;;14.92;100.00;95863.19;10475475;28;1826;-70
2023/05/19 14:30:27;;;;;;;;;;;;;;;15.14;100.00;95854.38;10475840;28;1835;-73
2023/05/19 14:35:30;;;;;;;;;;;;;;;15.20;100.00;95855.06;10471137;28;1985;-69
2023/05/19 14:40:33;;;;;;;;;;;;;;;15.30;100.00;95852.97;10472207;28;4477;-70
2023/05/19 14:45:36;;;;;;;;;;;;;;;14.90;100.00;95861.88;10471507;28;2060;-69
2023/05/19 14:50:38;;;;;;;;;;;;;;;15.56;100.00;95853.25;10478356;28;1940;-69
2023/05/19 14:55:41;;;;;;;;;;;;;;;15.89;100.00;95842.28;10479424;28;1924;-70
2023/05/19 15:00:44;;;;;;;;;;;;;;;15.52;100.00;95856.88;10481511;28;1873;-72
2023/05/19 15:05:48;;;;;;;;;;;;;;;15.39;100.00;95847.63;10484587;28;1878;-69
2023/05/19 15:10:51;;;;;;;;;;;;;;;15.45;100.00;95842.94;10483509;28;1832;-73
2023/05/19 15:15:53;;;;;;;;;;;;;;;15.52;100.00;95849.53;10476243;28;1948;-76
2023/05/19 15:21:06;;;;;;;;;;;;;;;14.97;100.00;95846.03;10482908;28;2103;-73
2023/05/19 15:26:08;;;;;;;;;;;;;;;15.42;100.00;95838.94;10477177;28;1837;-69
2023/05/19 15:31:11;;;;;;;;;;;;;;;15.63;100.00;95831.19;10482731;28;1908;-70
2023/05/19 15:36:15;;;;;;;;;;;;;;;15.76;100.00;95822.22;10483300;28;1936;-75
2023/05/19 15:41:17;;;;;;;;;;;;;;;15.38;100.00;95821.66;10481874;28;4474;-71
2023/05/19 15:46:20;;;;;;;;;;;;;;;15.50;100.00;95813.03;10480825;28;1770;-71
2023/05/19 15:51:23;;;;;;;;;;;;;;;15.41;100.00;95815.66;10477253;28;1884;-70
2023/05/19 15:56:25;;;;;;;;;;;;;;;15.78;100.00;95802.97;10481332;28;1918;-70
2023/05/19 16:01:28;;;;;;;;;;;;;;;16.46;100.00;95801.88;10480005;28;1904;-72
2023/05/19 16:06:31;;;;;;;;;;;;;;;17.22;100.00;95799.06;10486511;28;1842;-75
2023/05/19 16:11:33;;;;;;;;;;;;;;;17.27;100.00;95799.72;10484535;28;1905;-70
2023/05/19 16:16:36;;;;;;;;;;;;;;;16.56;100.00;95790.75;10478170;28;1975;-73
2023/05/19 16:21:38;;;;;;;;;;;;;;;16.36;100.00;95785.84;10480330;28;1964;-70
2023/05/19 16:26:41;;;;;;;;;;;;;;;16.25;100.00;95784.50;10482515;28;1822;-70
2023/05/19 16:31:43;;;;;;;;;;;;;;;16.30;100.00;95768.13;10473654;28;1861;-71
2023/05/19 16:36:46;;;;;;;;;;;;;;;15.95;100.00;95771.38;10481352;28;2009;-70
2023/05/19 16:41:48;;;;;;;;;;;;;;;15.65;100.00;95770.19;10477017;28;4422;-70
2023/05/19 16:46:51;;;;;;;;;;;;;;;15.61;100.00;95761.03;10480924;28;1857;-71
2023/05/19 16:51:54;;;;;;;;;;;;;;;15.81;100.00;95764.41;10472841;28;1885;-69
2023/05/19 16:56:57;;;;;;;;;;;;;;;15.80;100.00;95754.69;10476747;28;1914;-69
2023/05/19 17:01:59;;;;;;;;;;;;;;;15.62;100.00;95751.03;10479986;28;1973;-70
2023/05/19 17:07:02;;;;;;;;;;;;;;;15.44;100.00;95755.44;10478739;28;1885;-71
2023/05/19 17:12:04;;;;;;;;;;;;;;;15.47;100.00;95744.00;10483753;28;1838;-71
2023/05/19 17:17:07;;;;;;;;;;;;;;;15.53;100.00;95747.41;10479185;28;1921;-70
2023/05/19 17:22:10;;;;;;;;;;;;;;;15.46;100.00;95753.25;10472949;28;1853;-75
2023/05/19 17:27:13;;;;;;;;;;;;;;;15.44;100.00;95754.66;10480057;28;1842;-69
2023/05/19 17:32:16;;;;;;;;;;;;;;;15.26;100.00;95748.25;10479234;28;2326;-70
2023/05/19 17:37:22;;;;;;;;;;;;;;;15.22;100.00;95747.28;10475961;28;1920;-72
2023/05/19 17:42:24;;;;;;;;;;;;;;;15.17;100.00;95750.09;10475614;28;4329;-70
2023/05/19 17:47:27;;;;;;;;;;;;;;;15.13;100.00;95747.97;10476436;28;1882;-70
2023/05/19 17:52:29;;;;;;;;;;;;;;;14.94;100.00;95747.28;10481853;28;1979;-70
2023/05/19 17:57:32;;;;;;;;;;;;;;;14.84;100.00;95748.31;10475416;28;1837;-70
2023/05/19 18:02:34;;;;;;;;;;;;;;;14.81;100.00;95742.69;10473599;28;2106;-71
2023/05/19 18:07:39;;;;;;;;;;;;;;;14.83;100.00;95745.91;10481014;28;1681;-70
2023/05/19 18:12:41;;;;;;;;;;;;;;;14.83;100.00;95745.91;10478206;28;1927;-70
2023/05/19 18:17:44;;;;;;;;;;;;;;;14.75;100.00;95747.38;10482119;28;1913;-69
2023/05/19 18:22:46;;;;;;;;;;;;;;;14.79;100.00;95744.91;10479122;28;1885;-72
2023/05/19 18:27:49;;;;;;;;;;;;;;;14.68;100.00;95743.47;10468770;28;1889;-70
2023/05/19 18:32:51;;;;;;;;;;;;;;;14.66;100.00;95746.50;10475175;28;2072;-69
2023/05/19 18:37:54;;;;;;;;;;;;;;;14.65;100.00;95738.69;10473065;28;1814;-71
2023/05/19 18:42:56;;;;;;;;;;;;;;;14.66;100.00;95737.59;10471445;28;4565;-69
2023/05/19 18:47:59;;;;;;;;;;;;;;;14.70;100.00;95725.06;10476328;28;1941;-69
2023/05/19 18:53:02;;;;;;;;;;;;;;;14.63;100.00;95735.47;10474337;28;1906;-70
2023/05/19 18:58:04;;;;;;;;;;;;;;;14.54;100.00;95749.69;10472938;28;2032;-70
2023/05/19 19:03:09;;;;;;;;;;;;;;;14.60;100.00;95753.09;10469549;28;1826;-69
2023/05/19 19:08:11;;;;;;;;;;;;;;;14.64;100.00;95742.50;10478921;28;1893;-69
2023/05/19 19:13:14;;;;;;;;;;;;;;;14.56;100.00;95742.06;10472240;28;1907;-69
2023/05/19 19:18:16;;;;;;;;;;;;;;;14.50;100.00;95745.97;10473870;28;2071;-70
2023/05/19 19:23:19;;;;;;;;;;;;;;;14.50;100.00;95758.69;10478448;28;1830;-70
2023/05/19 19:28:21;;;;;;;;;;;;;;;14.61;100.00;95760.13;10468498;28;2122;-70
2023/05/19 19:33:24;;;;;;;;;;;;;;;14.65;100.00;95760.31;10468083;28;1984;-69
2023/05/19 19:38:27;;;;;;;;;;;;;;;14.63;100.00;95765.22;10483033;28;1806;-70
2023/05/19 19:43:29;;;;;;;;;;;;;;;14.53;100.00;95760.81;10476230;28;4422;-69
2023/05/19 19:48:32;;;;;;;;;;;;;;;14.49;100.00;95767.91;10484173;28;2014;-70
2023/05/19 19:53:34;;;;;;;;;;;;;;;14.48;100.00;95767.09;10484087;28;1906;-70
2023/05/19 19:58:37;;;;;;;;;;;;;;;14.42;100.00;95762.06;10486097;28;1710;-70
2023/05/19 20:03:39;;;;;;;;;;;;;;;14.38;100.00;95756.47;10480451;28;1830;-70
2023/05/19 20:08:42;;;;;;;;;;;;;;;14.33;100.00;95759.25;10483160;28;1834;-70
2023/05/19 20:13:45;;;;;;;;;;;;;;;14.31;100.00;95756.03;10482641;28;2026;-70
2023/05/19 20:18:47;;;;;;;;;;;;;;;14.24;100.00;95747.50;10476920;28;1779;-70
2023/05/19 20:23:50;;;;;;;;;;;;;;;14.25;100.00;95749.09;10479236;28;2058;-72
2023/05/19 20:28:52;;;;;;;;;;;;;;;14.24;100.00;95752.91;10472352;28;1965;-70
2023/05/19 20:33:55;;;;;;;;;;;;;;;14.19;100.00;95742.19;10479504;28;1922;-70
2023/05/19 20:39:00;;;;;;;;;;;;;;;14.14;100.00;95739.56;10486794;28;1728;-71
2023/05/19 20:44:02;;;;;;;;;;;;;;;14.08;100.00;95733.47;10486537;28;4513;-70
2023/05/19 20:49:05;;;;;;;;;;;;;;;13.93;100.00;95734.53;10475400;28;1849;-70
2023/05/19 20:54:07;;;;;;;;;;;;;;;13.91;100.00;95725.09;10479010;28;1914;-69
2023/05/19 20:59:10;;;;;;;;;;;;;;;13.94;100.00;95736.13;10476357;28;1893;-69
2023/05/19 21:04:12;;;;;;;;;;;;;;;13.87;100.00;95734.88;10480284;28;1818;-70
2023/05/19 21:09:15;;;;;;;;;;;;;;;13.83;100.00;95745.47;10474139;28;1945;-70
2023/05/19 21:14:17;;;;;;;;;;;;;;;13.85;100.00;95735.16;10481384;28;2036;-69
2023/05/19 21:19:20;;;;;;;;;;;;;;;13.82;100.00;95737.69;10473300;28;2026;-69
2023/05/19 21:24:23;;;;;;;;;;;;;;;13.71;100.00;95737.03;10474846;28;1865;-70
2023/05/19 21:29:26;;;;;;;;;;;;;;;13.73;100.00;95742.94;10468682;28;1854;-70
2023/05/19 21:34:29;;;;;;;;;;;;;;;13.72;100.00;95741.31;10472578;28;2082;-69
2023/05/19 21:39:31;;;;;;;;;;;;;;;13.58;100.00;95737.78;10474585;28;4509;-69
2023/05/19 21:44:34;;;;;;;;;;;;;;;13.60;100.00;95741.78;10475087;28;1479;-70
2023/05/19 21:49:38;;;;;;;;;;;;;;;13.51;100.00;95738.16;10470274;28;1802;-69
2023/05/19 21:54:41;;;;;;;;;;;;;;;13.51;100.00;95740.84;10480144;28;1918;-69
2023/05/19 21:59:44;;;;;;;;;;;;;;;13.46;100.00;95741.72;10477512;28;1962;-68
2023/05/19 22:04:46;;;;;;;;;;;;;;;13.40;100.00;95732.06;10473790;28;1883;-73
2023/05/19 22:09:48;;;;;;;;;;;;;;;13.41;100.00;95727.47;10474353;28;1866;-69
2023/05/19 22:14:51;;;;;;;;;;;;;;;13.33;100.00;95720.03;10476242;28;2053;-68
2023/05/19 22:19:53;;;;;;;;;;;;;;;13.17;100.00;95724.84;10478367;28;1841;-69
2023/05/19 22:24:55;;;;;;;;;;;;;;;13.10;100.00;95721.66;10477781;28;1869;-69
2023/05/19 22:29:58;;;;;;;;;;;;;;;12.92;100.00;95702.50;10468287;28;1846;-69
2023/05/19 22:35:00;;;;;;;;;;;;;;;12.82;100.00;95710.69;10468558;28;1973;-69
2023/05/19 22:40:03;;;;;;;;;;;;;;;12.72;100.00;95710.81;10460566;28;4544;-71
2023/05/19 22:45:05;;;;;;;;;;;;;;;12.70;100.00;95715.69;10476355;28;1874;-69
2023/05/19 22:50:09;;;;;;;;;;;;;;;12.63;100.00;95723.34;10477240;28;1870;-69
2023/05/19 22:55:11;;;;;;;;;;;;;;;12.60;100.00;95713.94;10478540;28;1980;-69
2023/05/19 23:00:14;;;;;;;;;;;;;;;12.56;100.00;95722.88;10472549;28;1861;-70
2023/05/19 23:05:16;;;;;;;;;;;;;;;12.44;100.00;95725.97;10477370;28;1787;-70
2023/05/19 23:10:18;;;;;;;;;;;;;;;12.35;100.00;95722.31;10470616;28;2115;-70
2023/05/19 23:15:21;;;;;;;;;;;;;;;12.24;100.00;95724.31;10476344;28;1910;-70
2023/05/19 23:20:23;;;;;;;;;;;;;;;12.16;100.00;95708.75;10488741;28;1825;-70
2023/05/19 23:25:26;;;;;;;;;;;;;;;12.10;100.00;95709.91;10491592;28;2115;-71
2023/05/19 23:30:29;;;;;;;;;;;;;;;11.95;100.00;95701.94;10476129;28;2016;-71
2023/05/19 23:35:31;;;;;;;;;;;;;;;11.81;100.00;95708.00;10482658;28;1983;-70
2023/05/19 23:40:34;;;;;;;;;;;;;;;11.70;100.00;95698.34;10487019;28;4441;-70
2023/05/19 23:45:37;;;;;;;;;;;;;;;11.58;100.00;95703.31;10485311;28;1781;-69
2023/05/19 23:50:39;;;;;;;;;;;;;;;11.52;100.00;95693.69;10483044;28;1819;-71
2023/05/19 23:55:41;;;;;;;;;;;;;;;11.45;100.00;95682.41;10479871;28;1967;-69
